Wilbur Observed Data For Previous 48 Hours

Caption
Day and Hour Reservoir Elevation (behind dam)* Tailwater Elevation (below dam)* Average Hourly Discharge*
7/14/2018 2 AM EDT 1,644.81 1,582.91 211
7/14/2018 3 AM EDT 1,644.52 1,582.90 209
7/14/2018 4 AM EDT 1,644.22 1,582.88 205
7/14/2018 5 AM EDT 1,643.91 1,582.86 202
7/14/2018 6 AM EDT 1,645.34 1,582.92 208
7/14/2018 7 AM EDT 1,646.73 1,582.99 222
7/14/2018 8 AM EDT 1,648.01 1,583.05 235
7/14/2018 9 AM EDT 1,647.82 1,583.04 240
7/14/2018 10 AM EDT 1,647.54 1,583.03 237
7/14/2018 11 AM EDT 1,647.24 1,583.02 235
7/14/2018 12 PM EDT 1,648.38 1,584.09 238
7/14/2018 1 PM EDT 1,647.76 1,585.66 1,713
7/14/2018 2 PM EDT 1,647.57 1,586.55 2,582
7/14/2018 3 PM EDT 1,647.48 1,586.54 2,587
7/14/2018 4 PM EDT 1,647.36 1,586.55 2,578
7/14/2018 5 PM EDT 1,647.28 1,586.54 2,571
7/14/2018 6 PM EDT 1,646.78 1,585.61 1,815
7/14/2018 7 PM EDT 1,648.10 1,582.80 264
7/14/2018 8 PM EDT 1,647.95 1,582.79 240
7/14/2018 9 PM EDT 1,647.75 1,582.79 240
7/14/2018 10 PM EDT 1,647.54 1,582.78 236
7/14/2018 11 PM EDT 1,647.30 1,582.77 235
7/15/2018 12 AM EDT 1,647.09 1,582.76 234
7/15/2018 1 AM EDT 1,646.87 1,582.75 230
7/15/2018 2 AM EDT 1,646.64 1,582.74 230
7/15/2018 3 AM EDT 1,646.43 1,582.73 226
7/15/2018 4 AM EDT 1,646.20 1,582.73 225
7/15/2018 5 AM EDT 1,645.97 1,582.72 223
7/15/2018 6 AM EDT 1,647.30 1,582.76 228
7/15/2018 7 AM EDT 1,648.65 1,582.80 240
7/15/2018 8 AM EDT 1,648.49 1,582.80 245
7/15/2018 9 AM EDT 1,648.30 1,582.79 245
7/15/2018 10 AM EDT 1,648.09 1,582.79 241
7/15/2018 11 AM EDT 1,647.84 1,582.78 240
7/15/2018 12 PM EDT 1,647.63 1,582.78 238
7/15/2018 1 PM EDT 1,648.98 1,583.97 243
7/15/2018 2 PM EDT 1,648.42 1,585.62 1,724
7/15/2018 3 PM EDT 1,647.78 1,585.61 1,752
7/15/2018 4 PM EDT 1,647.14 1,585.60 1,745
7/15/2018 5 PM EDT 1,646.50 1,585.61 1,739
7/15/2018 6 PM EDT 1,645.81 1,585.61 1,731
7/15/2018 7 PM EDT 1,647.20 1,582.78 278
7/15/2018 8 PM EDT 1,648.53 1,582.81 239
7/15/2018 9 PM EDT 1,648.37 1,582.81 245
7/15/2018 10 PM EDT 1,648.17 1,582.80 242
7/15/2018 11 PM EDT 1,648.02 1,582.80 240
7/16/2018 12 AM EDT 1,647.82 1,582.79 240
7/16/2018 1 AM EDT 1,647.61 1,582.78 238

Elevations are in feet above sea level. Discharges are in cubic feet per second and are reported at the end of the hour.